createdAt,value
2022-12-09T00:02:09.409Z,5.00
2022-12-09T00:04:36.247Z,5.00
2022-12-09T00:07:03.143Z,5.00
2022-12-09T00:09:30.739Z,5.00
2022-12-09T00:11:59.972Z,4.90
2022-12-09T00:14:30.479Z,4.90
2022-12-09T00:17:04.206Z,5.00
2022-12-09T00:19:35.334Z,5.00
2022-12-09T00:22:01.986Z,5.00
2022-12-09T00:24:28.620Z,5.00
2022-12-09T00:26:55.231Z,5.00
2022-12-09T00:29:22.135Z,5.00
2022-12-09T00:31:50.392Z,5.00
2022-12-09T00:34:17.058Z,5.10
2022-12-09T00:36:43.740Z,5.10
2022-12-09T00:39:15.043Z,5.10
2022-12-09T00:41:42.009Z,5.10
2022-12-09T00:44:09.871Z,5.10
2022-12-09T00:46:39.016Z,5.10
2022-12-09T00:49:06.458Z,5.10
2022-12-09T00:51:35.780Z,5.20
2022-12-09T00:54:04.112Z,5.20
2022-12-09T00:56:33.775Z,5.20
2022-12-09T00:59:00.763Z,5.20
2022-12-09T01:01:29.298Z,5.20
2022-12-09T01:03:58.953Z,5.30
2022-12-09T01:06:26.719Z,5.30
2022-12-09T01:08:53.877Z,5.30
2022-12-09T01:11:24.456Z,5.30
2022-12-09T01:13:54.640Z,5.30
2022-12-09T01:16:28.561Z,5.30
2022-12-09T01:19:02.086Z,5.30
2022-12-09T01:21:31.043Z,5.30
2022-12-09T01:24:00.225Z,5.30
2022-12-09T01:26:27.466Z,5.30
2022-12-09T01:28:55.543Z,5.40
2022-12-09T01:31:25.803Z,5.40
2022-12-09T01:33:56.010Z,5.40
2022-12-09T01:36:26.849Z,5.40
2022-12-09T01:38:54.773Z,5.40
2022-12-09T01:41:24.427Z,5.40
2022-12-09T01:44:14.264Z,5.40
2022-12-09T01:46:47.221Z,5.40
2022-12-09T01:49:20.433Z,5.40
2022-12-09T01:51:56.328Z,5.50
2022-12-09T01:54:25.855Z,5.50
2022-12-09T01:56:54.701Z,5.50
2022-12-09T01:59:27.714Z,5.50
2022-12-09T02:02:00.812Z,5.60
2022-12-09T02:04:32.876Z,5.60
2022-12-09T02:07:03.873Z,5.60
2022-12-09T02:09:31.237Z,5.70
2022-12-09T02:12:22.640Z,5.70
2022-12-09T02:14:58.599Z,5.70
2022-12-09T02:17:32.469Z,5.70
2022-12-09T02:20:09.858Z,5.70
2022-12-09T02:22:47.027Z,5.70
2022-12-09T02:25:48.129Z,5.80
2022-12-09T02:28:48.871Z,5.80
2022-12-09T02:31:21.025Z,5.80
2022-12-09T02:34:12.916Z,5.90
2022-12-09T02:37:09.233Z,5.90
2022-12-09T02:39:53.902Z,5.90
2022-12-09T02:42:26.005Z,5.90
2022-12-09T02:44:53.449Z,5.90
2022-12-09T02:47:29.220Z,6.00
2022-12-09T02:50:08.820Z,6.00
2022-12-09T02:52:37.747Z,6.00
2022-12-09T02:55:08.977Z,6.10
2022-12-09T02:57:38.010Z,6.10
2022-12-09T03:00:06.857Z,6.10
2022-12-09T03:02:45.141Z,6.10
2022-12-09T03:05:34.071Z,6.10
2022-12-09T03:08:24.075Z,6.20
2022-12-09T03:11:12.031Z,6.10
2022-12-09T03:13:59.364Z,6.20
2022-12-09T03:16:53.216Z,6.20
2022-12-09T03:19:33.777Z,6.20
2022-12-09T03:22:15.994Z,6.20
2022-12-09T03:24:52.328Z,6.20
2022-12-09T03:27:31.152Z,6.20
2022-12-09T03:30:01.464Z,6.20
2022-12-09T03:32:30.483Z,6.20
2022-12-09T03:35:08.577Z,6.20
2022-12-09T03:37:37.500Z,6.20
2022-12-09T03:40:16.615Z,6.20
2022-12-09T03:42:51.358Z,6.20
2022-12-09T03:45:19.613Z,6.20
2022-12-09T03:47:46.877Z,6.30
2022-12-09T03:50:19.363Z,6.30
2022-12-09T03:52:51.068Z,6.20
2022-12-09T03:55:31.715Z,6.30
2022-12-09T03:58:03.655Z,6.30
2022-12-09T04:00:38.524Z,6.30
2022-12-09T04:03:09.326Z,6.20
2022-12-09T04:05:40.314Z,6.30
2022-12-09T04:08:08.636Z,6.30
2022-12-09T04:10:36.969Z,6.20
2022-12-09T04:13:03.909Z,6.30
2022-12-09T04:15:30.503Z,6.30
2022-12-09T04:17:59.836Z,6.30
2022-12-09T04:20:30.874Z,6.30
2022-12-09T04:23:00.265Z,6.30
2022-12-09T04:25:29.957Z,6.30
2022-12-09T04:28:01.853Z,6.30
2022-12-09T04:30:28.537Z,6.30
2022-12-09T04:32:57.094Z,6.30
2022-12-09T04:35:23.801Z,6.30
2022-12-09T04:37:50.492Z,6.30
2022-12-09T04:40:24.455Z,6.30
2022-12-09T04:42:52.259Z,6.30
2022-12-09T04:45:18.847Z,6.30
2022-12-09T04:47:45.779Z,6.30
2022-12-09T04:50:13.776Z,6.30
2022-12-09T04:52:43.148Z,6.30
2022-12-09T04:55:10.249Z,6.30
2022-12-09T04:57:37.047Z,6.30
2022-12-09T05:00:06.167Z,6.30
2022-12-09T05:02:39.691Z,6.40
2022-12-09T05:05:07.011Z,6.30
2022-12-09T05:07:36.462Z,6.30
2022-12-09T05:10:06.619Z,6.30
2022-12-09T05:12:36.610Z,6.30
2022-12-09T05:15:07.787Z,6.40
2022-12-09T05:17:36.571Z,6.30
2022-12-09T05:20:06.878Z,6.40
2022-12-09T05:22:36.399Z,6.30
2022-12-09T05:25:03.500Z,6.40
2022-12-09T05:27:30.415Z,6.30
2022-12-09T05:29:59.538Z,6.40
2022-12-09T05:32:30.678Z,6.40
2022-12-09T05:34:57.443Z,6.40
2022-12-09T05:37:24.191Z,6.40
2022-12-09T05:39:50.841Z,6.40
2022-12-09T05:42:17.733Z,6.40
2022-12-09T05:44:44.474Z,6.40
2022-12-09T05:47:13.580Z,6.40
2022-12-09T05:49:40.704Z,6.40
2022-12-09T05:52:07.863Z,6.40
2022-12-09T05:54:37.461Z,6.40
2022-12-09T05:57:04.439Z,6.40
2022-12-09T05:59:31.702Z,6.40
2022-12-09T06:01:58.570Z,6.40
2022-12-09T06:04:25.442Z,6.40
2022-12-09T06:06:52.621Z,6.40
2022-12-09T06:09:19.555Z,6.40
2022-12-09T06:11:46.661Z,6.40
2022-12-09T06:14:13.376Z,6.40
2022-12-09T06:16:40.579Z,6.40
2022-12-09T06:19:10.046Z,6.40
2022-12-09T06:21:40.433Z,6.40
2022-12-09T06:24:07.953Z,6.40
2022-12-09T06:26:36.926Z,6.40
2022-12-09T06:29:03.631Z,6.40
2022-12-09T06:31:30.399Z,6.40
2022-12-09T06:33:59.144Z,6.40
2022-12-09T06:36:29.376Z,6.50
2022-12-09T06:38:57.932Z,6.50
2022-12-09T06:41:26.114Z,6.50
2022-12-09T06:43:53.257Z,6.40
2022-12-09T06:46:25.457Z,6.40
2022-12-09T06:48:54.843Z,6.40
2022-12-09T06:51:23.617Z,6.40
2022-12-09T06:53:50.780Z,6.50
2022-12-09T06:56:17.905Z,6.40
2022-12-09T06:58:46.585Z,6.50
2022-12-09T07:01:22.587Z,6.50
2022-12-09T07:03:52.359Z,6.40
2022-12-09T07:06:30.161Z,6.50
2022-12-09T07:09:01.072Z,6.40
2022-12-09T07:11:28.482Z,6.40
2022-12-09T07:13:55.724Z,6.40
2022-12-09T07:16:23.133Z,6.40
2022-12-09T07:18:51.230Z,6.40
2022-12-09T07:21:20.787Z,6.40
2022-12-09T07:23:48.447Z,6.40
2022-12-09T07:26:16.372Z,6.40
2022-12-09T07:28:47.299Z,6.40
2022-12-09T07:31:32.670Z,6.40
2022-12-09T07:34:00.257Z,6.40
2022-12-09T07:36:32.196Z,6.40
2022-12-09T07:39:07.620Z,6.40
2022-12-09T07:41:35.227Z,6.40
2022-12-09T07:44:02.082Z,6.40
2022-12-09T07:46:29.954Z,6.40
2022-12-09T07:48:57.794Z,6.40
2022-12-09T07:51:25.925Z,6.40
2022-12-09T07:53:53.818Z,6.40
2022-12-09T07:56:21.775Z,6.40
2022-12-09T07:58:51.275Z,6.40
2022-12-09T08:01:20.470Z,6.40
2022-12-09T08:03:48.561Z,6.40
2022-12-09T08:06:18.315Z,6.40
2022-12-09T08:08:46.432Z,6.50
2022-12-09T08:11:16.380Z,6.50
2022-12-09T08:13:43.899Z,6.50
2022-12-09T08:16:13.423Z,6.50
2022-12-09T08:18:41.624Z,6.50
2022-12-09T08:21:11.790Z,6.60
2022-12-09T08:23:39.570Z,6.60
2022-12-09T08:26:07.499Z,6.60
2022-12-09T08:28:34.920Z,6.60
2022-12-09T08:31:16.918Z,6.60
2022-12-09T08:33:44.266Z,6.70
2022-12-09T08:36:14.673Z,6.70
2022-12-09T08:38:42.688Z,6.70
2022-12-09T08:41:12.590Z,6.70
2022-12-09T08:43:40.694Z,6.80
2022-12-09T08:46:07.985Z,6.80
2022-12-09T08:48:39.115Z,6.80
2022-12-09T08:51:07.388Z,6.80
2022-12-09T08:53:35.062Z,6.80
2022-12-09T08:56:10.318Z,6.80
2022-12-09T08:58:37.501Z,6.80
2022-12-09T09:01:04.795Z,6.90
2022-12-09T09:03:34.496Z,6.90
2022-12-09T09:06:10.454Z,6.90
2022-12-09T09:08:39.168Z,6.90
2022-12-09T09:11:25.878Z,6.90
2022-12-09T09:13:53.101Z,7.00
2022-12-09T09:16:25.643Z,7.00
2022-12-09T09:18:53.409Z,7.00
2022-12-09T09:21:23.439Z,7.00
2022-12-09T09:23:50.358Z,7.00
2022-12-09T09:26:21.492Z,7.00
2022-12-09T09:28:48.804Z,7.10
2022-12-09T09:31:19.558Z,7.10
2022-12-09T09:33:47.082Z,7.10
2022-12-09T09:36:21.047Z,7.10
2022-12-09T09:38:53.990Z,7.10
2022-12-09T09:41:34.036Z,7.20
2022-12-09T09:44:01.904Z,7.20
2022-12-09T09:46:43.214Z,7.20
2022-12-09T09:49:53.490Z,7.20
2022-12-09T09:52:23.399Z,7.30
2022-12-09T09:54:51.329Z,7.30
2022-12-09T09:57:27.674Z,7.30
2022-12-09T10:00:31.916Z,7.30
2022-12-09T10:03:03.770Z,7.40
2022-12-09T10:05:53.018Z,7.40
2022-12-09T10:08:56.125Z,7.40
2022-12-09T10:11:54.928Z,7.40
2022-12-09T10:14:40.053Z,7.50
2022-12-09T10:17:21.574Z,7.50
2022-12-09T10:19:56.980Z,7.50
2022-12-09T10:22:28.958Z,7.50
2022-12-09T10:24:59.049Z,7.50
2022-12-09T10:27:55.494Z,7.60
2022-12-09T10:30:22.484Z,7.60
2022-12-09T10:32:50.070Z,7.60
2022-12-09T10:35:17.720Z,7.70
2022-12-09T10:37:45.338Z,7.70
2022-12-09T10:40:12.416Z,7.70
2022-12-09T10:43:13.234Z,7.80
2022-12-09T10:48:48.921Z,7.90
2022-12-09T10:51:26.238Z,7.90
2022-12-09T10:53:59.950Z,7.90
2022-12-09T10:56:35.865Z,7.90
2022-12-09T10:59:13.639Z,7.90
2022-12-09T11:01:51.876Z,7.90
2022-12-09T11:04:35.589Z,7.90
2022-12-09T11:07:14.250Z,8.00
2022-12-09T11:09:42.781Z,8.00
2022-12-09T11:12:30.005Z,8.00
2022-12-09T11:15:20.740Z,8.10
2022-12-09T11:18:04.471Z,8.10
2022-12-09T11:20:33.918Z,8.20
2022-12-09T11:23:16.126Z,8.20
2022-12-09T11:25:57.039Z,8.20
2022-12-09T11:28:29.286Z,8.30
2022-12-09T11:31:29.461Z,8.30
2022-12-09T11:34:02.287Z,8.30
2022-12-09T11:36:37.012Z,8.40
2022-12-09T11:39:15.151Z,8.40
2022-12-09T11:42:05.306Z,8.50
2022-12-09T11:44:33.811Z,8.50
2022-12-09T11:47:10.264Z,8.50
2022-12-09T11:49:48.331Z,8.60
2022-12-09T11:52:17.957Z,8.60
2022-12-09T11:54:53.734Z,8.70
2022-12-09T11:57:29.068Z,8.70
2022-12-09T12:00:00.847Z,8.70
2022-12-09T12:02:33.020Z,8.70
2022-12-09T12:05:08.967Z,8.80
2022-12-09T12:07:43.534Z,8.80
2022-12-09T12:10:34.222Z,8.80
2022-12-09T12:13:20.678Z,8.80
2022-12-09T12:16:39.446Z,8.70
2022-12-09T12:19:13.871Z,8.70
2022-12-09T12:21:55.919Z,8.70
2022-12-09T12:24:25.651Z,8.70
2022-12-09T12:26:54.980Z,8.60
2022-12-09T12:29:52.407Z,8.60
2022-12-09T12:32:44.317Z,8.60
2022-12-09T12:35:35.376Z,8.70
2022-12-09T12:38:12.788Z,8.60
2022-12-09T12:41:02.019Z,8.60
2022-12-09T12:44:20.475Z,8.60
2022-12-09T12:47:09.384Z,8.70
2022-12-09T12:49:42.067Z,8.70
2022-12-09T12:52:26.341Z,8.70
2022-12-09T12:55:26.241Z,8.70
2022-12-09T12:58:18.047Z,8.70
2022-12-09T13:00:53.711Z,8.80
2022-12-09T13:03:32.916Z,8.80
2022-12-09T13:06:01.212Z,8.80
2022-12-09T13:08:35.435Z,8.80
2022-12-09T13:11:14.409Z,8.80
2022-12-09T13:13:53.566Z,8.80
2022-12-09T13:16:34.400Z,8.80
2022-12-09T13:19:24.432Z,8.90
2022-12-09T13:21:51.793Z,8.80
2022-12-09T13:24:42.220Z,8.80
2022-12-09T13:27:11.685Z,8.80
2022-12-09T13:29:57.281Z,8.80
2022-12-09T13:32:43.737Z,8.80
2022-12-09T13:35:23.075Z,8.80
2022-12-09T13:37:52.044Z,8.80
2022-12-09T13:40:21.946Z,8.80
2022-12-09T13:42:53.324Z,8.70
2022-12-09T13:45:44.887Z,8.70
2022-12-09T13:48:16.500Z,8.70
2022-12-09T13:50:51.433Z,8.70
2022-12-09T13:53:24.876Z,8.70
2022-12-09T13:56:17.631Z,8.70
2022-12-09T13:59:13.451Z,8.70
2022-12-09T14:01:50.854Z,8.60
2022-12-09T14:04:29.299Z,8.60
2022-12-09T14:07:15.719Z,8.60
2022-12-09T14:09:50.180Z,8.50
2022-12-09T14:12:27.766Z,8.50
2022-12-09T14:15:28.210Z,8.50
2022-12-09T14:18:04.492Z,8.50
2022-12-09T14:20:34.507Z,8.50
2022-12-09T14:23:06.976Z,8.40
2022-12-09T14:25:36.901Z,8.40
2022-12-09T14:28:11.746Z,8.40
2022-12-09T14:30:51.151Z,8.40
2022-12-09T14:33:36.883Z,8.30
2022-12-09T14:36:31.347Z,8.30
2022-12-09T14:39:22.967Z,8.30
2022-12-09T14:42:05.353Z,8.20
2022-12-09T14:45:00.273Z,8.20
2022-12-09T14:47:30.118Z,8.10
2022-12-09T14:50:22.937Z,8.10
2022-12-09T14:52:57.432Z,8.00
2022-12-09T14:55:26.020Z,8.00
2022-12-09T14:57:55.247Z,7.90
2022-12-09T15:00:35.458Z,7.90
2022-12-09T15:03:31.482Z,7.80
2022-12-09T15:05:55.950Z,7.80
2022-12-09T15:08:34.655Z,7.70
2022-12-09T15:11:07.592Z,7.70
2022-12-09T15:13:37.643Z,7.70
2022-12-09T15:16:15.809Z,7.70
2022-12-09T15:18:44.468Z,7.60
2022-12-09T15:21:22.284Z,7.60
2022-12-09T15:23:49.200Z,7.60
2022-12-09T15:26:26.121Z,7.60
2022-12-09T15:28:55.880Z,7.60
2022-12-09T15:31:27.683Z,7.60
2022-12-09T15:33:57.200Z,7.50
2022-12-09T15:36:37.445Z,7.50
2022-12-09T15:39:12.157Z,7.50
2022-12-09T15:42:06.447Z,7.40
2022-12-09T15:44:53.346Z,7.40
2022-12-09T15:47:38.737Z,7.40
2022-12-09T15:50:18.776Z,7.40
2022-12-09T15:52:58.894Z,7.30
2022-12-09T15:55:36.614Z,7.30
2022-12-09T15:58:06.432Z,7.30
2022-12-09T16:00:38.761Z,7.30
2022-12-09T16:03:06.283Z,7.30
2022-12-09T16:05:35.996Z,7.30
2022-12-09T16:08:06.745Z,7.30
2022-12-09T16:10:47.176Z,7.30
2022-12-09T16:13:16.383Z,7.30
2022-12-09T16:15:53.661Z,7.20
2022-12-09T16:18:49.699Z,7.20
2022-12-09T16:21:27.291Z,7.20
2022-12-09T16:23:56.148Z,7.20
2022-12-09T16:26:38.928Z,7.20
2022-12-09T16:29:21.031Z,7.20
2022-12-09T16:32:03.431Z,7.10
2022-12-09T16:34:30.059Z,7.10
2022-12-09T16:36:56.975Z,7.10
2022-12-09T16:39:23.524Z,7.10
2022-12-09T16:41:52.930Z,7.00
2022-12-09T16:44:27.321Z,7.00
2022-12-09T16:47:15.942Z,7.00
2022-12-09T16:49:46.310Z,7.00
2022-12-09T16:52:16.307Z,7.00
2022-12-09T16:54:45.385Z,6.90
2022-12-09T16:57:13.516Z,6.90
2022-12-09T16:59:40.376Z,7.00
2022-12-09T17:02:18.052Z,6.90
2022-12-09T17:04:45.039Z,6.90
2022-12-09T17:07:11.610Z,6.90
2022-12-09T17:09:38.239Z,6.80
2022-12-09T17:12:05.130Z,6.80
2022-12-09T17:14:32.301Z,6.70
2022-12-09T17:17:00.177Z,6.70
2022-12-09T17:19:26.859Z,6.60
2022-12-09T17:21:53.639Z,6.60
2022-12-09T17:24:20.799Z,6.50
2022-12-09T17:26:47.463Z,6.40
2022-12-09T17:29:16.511Z,6.30
2022-12-09T17:31:43.567Z,6.20
2022-12-09T17:34:12.500Z,6.10
2022-12-09T17:36:39.171Z,6.00
2022-12-09T17:39:09.231Z,5.90
2022-12-09T17:41:38.227Z,5.90
2022-12-09T17:44:08.577Z,5.80
2022-12-09T17:46:37.433Z,5.70
2022-12-09T17:49:04.107Z,5.70
2022-12-09T17:51:35.623Z,5.60
2022-12-09T17:54:03.328Z,5.50
2022-12-09T17:56:29.951Z,5.50
2022-12-09T17:59:04.178Z,5.40
2022-12-09T18:01:33.844Z,5.40
2022-12-09T18:04:07.767Z,5.30
2022-12-09T18:06:43.260Z,5.30
2022-12-09T18:09:15.473Z,5.30
2022-12-09T18:11:43.377Z,5.20
2022-12-09T18:14:10.441Z,5.30
2022-12-09T18:16:37.926Z,5.30
2022-12-09T18:19:07.300Z,5.30
2022-12-09T18:21:39.388Z,5.40
2022-12-09T18:24:06.406Z,5.40
2022-12-09T18:26:41.376Z,5.40
2022-12-09T18:29:08.542Z,5.50
2022-12-09T18:31:36.767Z,5.50
2022-12-09T18:34:03.436Z,5.60
2022-12-09T18:36:30.172Z,5.60
2022-12-09T18:38:59.864Z,5.70
2022-12-09T18:41:29.330Z,5.70
2022-12-09T18:44:02.393Z,5.70
2022-12-09T18:46:32.658Z,5.80
2022-12-09T18:49:05.159Z,5.80
2022-12-09T18:51:32.747Z,5.80
2022-12-09T18:54:00.631Z,5.90
2022-12-09T18:56:30.292Z,5.90
2022-12-09T18:59:06.915Z,5.90
2022-12-09T19:01:38.707Z,5.90
2022-12-09T19:04:08.876Z,6.00
2022-12-09T19:06:38.066Z,6.00
2022-12-09T19:09:10.563Z,6.00
2022-12-09T19:11:38.868Z,6.00
2022-12-09T19:14:08.684Z,6.10
2022-12-09T19:16:38.265Z,6.10
2022-12-09T19:19:09.638Z,6.20
2022-12-09T19:21:42.531Z,6.20
2022-12-09T19:24:36.380Z,6.20
2022-12-09T19:27:06.505Z,6.20
2022-12-09T19:29:35.814Z,6.20
2022-12-09T19:32:52.094Z,6.20
2022-12-09T19:35:19.452Z,6.20
2022-12-09T19:37:48.482Z,6.20
2022-12-09T19:40:15.180Z,6.20
2022-12-09T19:42:45.641Z,6.20
2022-12-09T19:45:15.288Z,6.20
2022-12-09T19:47:41.889Z,6.20
2022-12-09T19:50:09.556Z,6.20
2022-12-09T19:52:36.745Z,6.20
2022-12-09T19:55:06.747Z,6.20
2022-12-09T19:57:33.640Z,6.20
2022-12-09T20:00:02.768Z,6.20
2022-12-09T20:02:34.126Z,6.20
2022-12-09T20:05:00.786Z,6.20
2022-12-09T20:07:27.469Z,6.10
2022-12-09T20:09:58.881Z,6.10
2022-12-09T20:12:28.048Z,6.10
2022-12-09T20:14:54.679Z,6.00
2022-12-09T20:17:23.419Z,6.00
2022-12-09T20:19:53.326Z,6.00
2022-12-09T20:22:29.459Z,6.00
2022-12-09T20:25:01.131Z,5.90
2022-12-09T20:27:29.439Z,5.90
2022-12-09T20:29:56.080Z,5.90
2022-12-09T20:32:25.962Z,5.90
2022-12-09T20:34:53.907Z,5.80
2022-12-09T20:37:25.988Z,5.80
2022-12-09T20:39:52.579Z,5.80
2022-12-09T20:42:23.896Z,5.80
2022-12-09T20:44:50.586Z,5.70
2022-12-09T20:47:19.617Z,5.70
2022-12-09T20:49:48.445Z,5.70
2022-12-09T20:52:17.483Z,5.70
2022-12-09T20:54:46.509Z,5.70
2022-12-09T20:57:13.225Z,5.60
2022-12-09T20:59:39.828Z,5.60
2022-12-09T21:02:12.215Z,5.60
2022-12-09T21:04:43.649Z,5.60
2022-12-09T21:07:12.423Z,5.60
2022-12-09T21:09:41.584Z,5.60
2022-12-09T21:12:08.278Z,5.50
2022-12-09T21:14:36.109Z,5.50
2022-12-09T21:17:04.172Z,5.40
2022-12-09T21:19:35.207Z,5.40
2022-12-09T21:22:05.344Z,5.30
2022-12-09T21:24:34.677Z,5.30
2022-12-09T21:27:03.076Z,5.20
2022-12-09T21:29:33.922Z,5.10
2022-12-09T21:32:03.142Z,5.10
2022-12-09T21:34:34.427Z,5.00
2022-12-09T21:37:03.456Z,4.90
2022-12-09T21:39:30.265Z,4.90
2022-12-09T21:42:00.950Z,4.80
2022-12-09T21:44:28.201Z,4.70
2022-12-09T21:46:55.065Z,4.70
2022-12-09T21:49:24.500Z,4.60
2022-12-09T21:51:56.064Z,4.50
2022-12-09T21:54:25.090Z,4.50
2022-12-09T21:56:53.186Z,4.40
2022-12-09T21:59:23.080Z,4.40
2022-12-09T22:01:52.017Z,4.30
2022-12-09T22:04:21.742Z,4.30
2022-12-09T22:06:50.167Z,4.20
2022-12-09T22:09:20.962Z,4.20
2022-12-09T22:11:47.664Z,4.10
2022-12-09T22:14:14.398Z,4.10
2022-12-09T22:16:52.506Z,4.00
2022-12-09T22:19:20.923Z,4.00
2022-12-09T22:21:50.042Z,4.00
2022-12-09T22:24:20.030Z,3.90
2022-12-09T22:26:46.676Z,3.90
2022-12-09T22:29:17.289Z,3.90
2022-12-09T22:31:46.105Z,3.80
2022-12-09T22:34:15.852Z,3.80
2022-12-09T22:36:46.164Z,3.70
2022-12-09T22:39:21.968Z,3.70
2022-12-09T22:41:51.379Z,3.70
2022-12-09T22:44:20.524Z,3.60
2022-12-09T22:46:49.964Z,3.60
2022-12-09T22:49:17.583Z,3.60
2022-12-09T22:51:45.308Z,3.60
2022-12-09T22:54:12.679Z,3.50
2022-12-09T22:56:44.034Z,3.50
2022-12-09T22:59:14.891Z,3.50
2022-12-09T23:01:47.316Z,3.40
2022-12-09T23:04:19.053Z,3.40
2022-12-09T23:06:46.962Z,3.40
2022-12-09T23:09:24.893Z,3.40
2022-12-09T23:11:54.803Z,3.30
2022-12-09T23:14:26.326Z,3.30
2022-12-09T23:16:52.972Z,3.30
2022-12-09T23:19:21.774Z,3.20
2022-12-09T23:21:52.628Z,3.20
2022-12-09T23:24:24.694Z,3.20
2022-12-09T23:26:51.667Z,3.20
2022-12-09T23:29:20.430Z,3.10
2022-12-09T23:31:47.141Z,3.10
2022-12-09T23:34:14.851Z,3.10
2022-12-09T23:36:44.871Z,3.00
2022-12-09T23:39:16.353Z,3.00
2022-12-09T23:41:46.026Z,3.00
2022-12-09T23:44:15.477Z,3.00
2022-12-09T23:46:43.209Z,3.00
2022-12-09T23:49:10.044Z,3.00
2022-12-09T23:51:39.503Z,2.90
2022-12-09T23:54:08.251Z,2.90
2022-12-09T23:56:40.324Z,2.90
2022-12-09T23:59:11.328Z,2.90
